Portada
METAR-TAF:

METAR-TAF

Aeroports :

Kununurra, Austràlia

latitud: 15-46S, longitud: 128-42E, altitud: 44 m

Observació

L'informe es va fer fa 18 minuts, a les 13:00 UTC
Vent 5 kt del Est, variant entre Nord-Oest i Est/Sud-Est
Temperatura 18°C
Humitat 39%
Pressió 1015 hPa
Visibilitat 10 km o més

METAR: YPKU 151300Z AUTO 08005KT 310V110 9999 // NCD 18/04 Q1015 RF00.0/000.0

Hora: 21:18 (13:18 UTC)

Pronòstic

L'informe es va fer fa 7 hores i 6 minuts, a les 06:12 UTC
Pronòstic vàlid del 15 a les 08 UTC al 15 a les 20 UTC
Vent 5 kt amb direcció variable
Visibilitat 10 km o més
sense núvols per sota de 1500 mi sense presència de cumulonimbus.

TAF: YPKU 150612Z 1508/1520 VRB05KT CAVOK

Observacions i pronòstics meteorològics de més de 4000 aeroports (METAR i TAF).

Les estacions disponibles són els punts grocs i vermells al mapa.

Posi el ratolí al punt desitjat per veure el nom de l'estació.

Feu clic per veure les observacions i els pronòstics meteorològics.

Per canviar el mapa: feu clic els botons verds amb una creu de color negre per apropar; al botó verd amb un guió per allunyar la imatge; o en les fletxes verdes per a mapes adjacents.


METAR-TAF: